createdAt,value
2022-10-08T00:03:29.477Z,100762.31
2022-10-08T00:08:34.838Z,100755.06
2022-10-08T00:13:42.361Z,100750.38
2022-10-08T00:18:47.216Z,100744.81
2022-10-08T00:23:50.931Z,100736.63
2022-10-08T00:28:55.800Z,100738.22
2022-10-08T00:33:59.844Z,100733.66
2022-10-08T00:39:08.545Z,100726.28
2022-10-08T00:44:54.819Z,100726.56
2022-10-08T00:50:02.108Z,100713.63
2022-10-08T00:55:07.114Z,100712.91
2022-10-08T01:00:13.056Z,100721.03
2022-10-08T01:05:19.777Z,100710.72
2022-10-08T01:10:44.105Z,100709.91
2022-10-08T01:15:46.710Z,100702.38
2022-10-08T01:21:15.631Z,100701.16
2022-10-08T01:26:50.476Z,100699.75
2022-10-08T01:31:55.922Z,100694.88
2022-10-08T01:37:01.325Z,100694.38
2022-10-08T01:42:07.772Z,100691.00
2022-10-08T01:47:13.728Z,100680.72
2022-10-08T01:52:29.052Z,100677.22
2022-10-08T01:57:32.935Z,100672.91
2022-10-08T02:02:35.727Z,100663.56
2022-10-08T02:07:43.008Z,100655.38
2022-10-08T02:12:46.159Z,100662.94
2022-10-08T02:18:35.616Z,100666.72
2022-10-08T02:23:41.294Z,100664.66
2022-10-08T02:28:55.010Z,100665.91
2022-10-08T02:34:33.351Z,100663.84
2022-10-08T02:39:39.649Z,100662.31
2022-10-08T02:44:48.899Z,100658.97
2022-10-08T02:49:57.990Z,100663.59
2022-10-08T02:55:01.429Z,100663.19
2022-10-08T03:00:05.115Z,100656.38
2022-10-08T03:05:15.280Z,100661.28
2022-10-08T03:10:19.857Z,100653.59
2022-10-08T03:15:23.146Z,100648.28
2022-10-08T03:20:26.789Z,100652.75
2022-10-08T03:25:29.522Z,100653.75
2022-10-08T03:30:32.193Z,100652.75
2022-10-08T03:35:35.280Z,100653.75
2022-10-08T03:40:37.862Z,100654.72
2022-10-08T03:45:52.092Z,100650.00
2022-10-08T03:50:56.189Z,100657.53
2022-10-08T03:56:09.899Z,100647.94
2022-10-08T04:01:17.105Z,100647.66
2022-10-08T04:06:20.024Z,100641.09
2022-10-08T04:11:22.610Z,100638.63
2022-10-08T04:16:25.411Z,100642.25
2022-10-08T04:21:29.648Z,100641.81
2022-10-08T04:26:32.214Z,100640.72
2022-10-08T04:31:35.264Z,100639.59
2022-10-08T04:36:39.012Z,100652.81
2022-10-08T04:41:41.801Z,100648.66
2022-10-08T04:46:44.567Z,100641.00
2022-10-08T04:51:47.268Z,100648.09
2022-10-08T04:56:49.899Z,100643.34
2022-10-08T05:01:56.938Z,100642.41
2022-10-08T05:06:59.676Z,100646.16
2022-10-08T05:12:02.249Z,100647.28
2022-10-08T05:17:04.851Z,100643.66
2022-10-08T05:22:07.426Z,100652.84
2022-10-08T05:27:10.051Z,100665.22
2022-10-08T05:32:12.668Z,100654.22
2022-10-08T05:37:15.277Z,100658.69
2022-10-08T05:42:17.869Z,100669.56
2022-10-08T05:47:21.180Z,100674.81
2022-10-08T05:52:23.792Z,100690.88
2022-10-08T05:57:26.395Z,100684.03
2022-10-08T06:02:29.070Z,100698.38
2022-10-08T06:07:31.751Z,100692.91
2022-10-08T06:12:34.341Z,100692.44
2022-10-08T06:17:36.942Z,100693.66
2022-10-08T06:22:39.539Z,100694.25
2022-10-08T06:27:42.117Z,100691.22
2022-10-08T06:32:45.016Z,100697.34
2022-10-08T06:37:48.888Z,100703.44
2022-10-08T06:42:52.051Z,100706.16
2022-10-08T06:47:54.605Z,100709.69
2022-10-08T06:52:57.245Z,100702.06
2022-10-08T06:57:59.992Z,100705.03
2022-10-08T07:03:02.760Z,100706.97
2022-10-08T07:08:05.963Z,100701.75
2022-10-08T07:13:08.569Z,100700.00
2022-10-08T07:18:12.767Z,100692.25
2022-10-08T07:23:15.397Z,100688.94
2022-10-08T07:28:18.094Z,100698.59
2022-10-08T07:33:20.949Z,100696.75
2022-10-08T07:38:23.575Z,100697.72
2022-10-08T07:43:26.243Z,100690.66
2022-10-08T07:48:33.873Z,100693.09
2022-10-08T07:53:37.515Z,100684.34
2022-10-08T07:58:40.963Z,100684.91
2022-10-08T08:03:44.185Z,100687.78
2022-10-08T08:08:47.036Z,100681.56
2022-10-08T08:13:50.666Z,100680.81
2022-10-08T08:18:55.449Z,100679.53
2022-10-08T08:24:02.373Z,100672.41
2022-10-08T08:29:07.909Z,100670.06
2022-10-08T08:34:13.745Z,100667.97
2022-10-08T08:39:23.144Z,100671.66
2022-10-08T08:44:46.460Z,100666.78
2022-10-08T08:50:18.519Z,100653.56
2022-10-08T08:55:29.603Z,100655.44
2022-10-08T09:00:36.745Z,100656.22
2022-10-08T09:05:42.577Z,100653.59
2022-10-08T09:10:48.079Z,100655.41
2022-10-08T09:15:51.527Z,100659.50
2022-10-08T09:20:54.108Z,100650.19
2022-10-08T09:26:03.586Z,100651.97
2022-10-08T09:31:25.048Z,100652.72
2022-10-08T09:36:36.534Z,100644.50
2022-10-08T09:41:39.314Z,100637.69
2022-10-08T09:46:42.086Z,100629.28
2022-10-08T09:51:45.436Z,100623.81
2022-10-08T09:57:00.085Z,100615.84
2022-10-08T10:02:31.879Z,100621.53
2022-10-08T10:07:45.921Z,100612.06
2022-10-08T10:12:53.007Z,100605.31
2022-10-08T10:18:11.427Z,100600.75
2022-10-08T10:23:17.200Z,100591.25
2022-10-08T10:28:50.679Z,100582.97
2022-10-08T10:33:57.808Z,100577.78
2022-10-08T10:39:18.325Z,100561.84
2022-10-08T10:44:26.790Z,100547.53
2022-10-08T10:49:41.868Z,100545.03
2022-10-08T10:55:03.489Z,100532.19
2022-10-08T11:00:20.940Z,100535.16
2022-10-08T11:05:27.074Z,100523.25
2022-10-08T11:10:45.934Z,100511.84
2022-10-08T11:16:10.590Z,100500.25
2022-10-08T11:21:22.081Z,100498.28
2022-10-08T11:26:27.829Z,100493.50
2022-10-08T11:31:41.109Z,100485.31
2022-10-08T11:36:51.459Z,100481.72
2022-10-08T11:42:01.843Z,100475.28
2022-10-08T11:47:36.451Z,100468.41
2022-10-08T11:52:39.649Z,100469.63
2022-10-08T11:58:06.636Z,100456.72
2022-10-08T12:03:27.566Z,100457.63
2022-10-08T12:08:58.171Z,100445.53
2022-10-08T12:14:13.088Z,100440.22
2022-10-08T12:19:34.480Z,100428.03
2022-10-08T12:24:37.901Z,100419.84
2022-10-08T12:29:57.983Z,100415.09
2022-10-08T12:35:01.863Z,100416.47
2022-10-08T12:40:15.729Z,100406.34
2022-10-08T12:45:26.383Z,100405.72
2022-10-08T12:50:29.086Z,100410.31
2022-10-08T12:55:38.165Z,100401.09
2022-10-08T13:00:42.806Z,100401.28
2022-10-08T13:05:46.046Z,100397.41
2022-10-08T13:10:48.831Z,100398.00
2022-10-08T13:15:59.287Z,100398.28
2022-10-08T13:21:04.020Z,100392.91
2022-10-08T13:26:44.361Z,100396.41
2022-10-08T13:31:58.036Z,100391.91
2022-10-08T13:37:04.243Z,100391.91
2022-10-08T13:42:33.639Z,100380.31
2022-10-08T13:47:36.334Z,100380.31
2022-10-08T13:52:43.192Z,100375.78
2022-10-08T13:57:46.665Z,100374.53
2022-10-08T14:02:51.836Z,100366.22
2022-10-08T14:08:02.171Z,100361.66
2022-10-08T14:13:04.984Z,100363.09
2022-10-08T14:18:08.241Z,100350.81
2022-10-08T14:23:13.322Z,100351.22
2022-10-08T14:28:15.910Z,100347.03
2022-10-08T14:33:18.629Z,100338.78
2022-10-08T14:38:21.181Z,100347.53
2022-10-08T14:43:27.532Z,100345.94
2022-10-08T14:48:30.367Z,100350.09
2022-10-08T14:53:32.976Z,100348.53
2022-10-08T14:58:36.023Z,100354.38
2022-10-08T15:03:38.699Z,100350.31
2022-10-08T15:08:41.317Z,100346.22
2022-10-08T15:13:44.038Z,100346.69
2022-10-08T15:18:46.757Z,100340.34
2022-10-08T15:23:49.447Z,100340.81
2022-10-08T15:28:53.618Z,100345.00
2022-10-08T15:33:59.675Z,100329.97
2022-10-08T15:39:08.756Z,100342.03
2022-10-08T15:44:22.841Z,100349.13
2022-10-08T15:49:32.486Z,100352.63
2022-10-08T15:54:36.246Z,100353.28
2022-10-08T15:59:39.512Z,100362.38
2022-10-08T16:04:42.275Z,100376.44
2022-10-08T16:09:44.911Z,100375.56
2022-10-08T16:14:47.895Z,100369.91
2022-10-08T16:19:50.897Z,100371.91
2022-10-08T16:24:53.563Z,100381.28
2022-10-08T16:29:56.212Z,100382.38
2022-10-08T16:34:58.887Z,100387.78
2022-10-08T16:40:03.897Z,100399.97
2022-10-08T16:45:07.041Z,100396.13
2022-10-08T16:50:09.939Z,100401.78
2022-10-08T16:55:12.591Z,100405.97
2022-10-08T17:00:15.415Z,100408.69
2022-10-08T17:05:18.102Z,100408.34
2022-10-08T17:10:20.670Z,100416.56
2022-10-08T17:15:23.350Z,100409.41
2022-10-08T17:20:27.677Z,100414.94
2022-10-08T17:25:30.353Z,100419.56
2022-10-08T17:30:33.053Z,100431.44
2022-10-08T17:35:35.837Z,100421.88
2022-10-08T17:40:38.533Z,100420.97
2022-10-08T17:45:41.343Z,100439.38
2022-10-08T17:50:44.215Z,100451.09
2022-10-08T17:55:46.843Z,100448.41
2022-10-08T18:00:50.032Z,100459.09
2022-10-08T18:05:57.566Z,100454.28
2022-10-08T18:11:05.248Z,100464.25
2022-10-08T18:16:11.387Z,100461.34
2022-10-08T18:21:16.278Z,100466.38
2022-10-08T18:26:24.349Z,100457.91
2022-10-08T18:31:29.366Z,100463.91
2022-10-08T18:36:34.879Z,100462.72
2022-10-08T18:41:41.200Z,100460.09
2022-10-08T18:46:45.207Z,100467.72
2022-10-08T18:51:49.647Z,100465.94
2022-10-08T18:56:52.397Z,100482.84
2022-10-08T19:01:59.077Z,100485.47
2022-10-08T19:07:02.342Z,100495.50
2022-10-08T19:12:04.414Z,100498.75
2022-10-08T19:17:06.623Z,100500.78
2022-10-08T19:22:14.666Z,100499.66
2022-10-08T19:27:23.067Z,100495.19
2022-10-08T19:32:25.108Z,100507.72
2022-10-08T19:37:27.176Z,100504.09
2022-10-08T19:42:29.322Z,100509.41
2022-10-08T19:47:31.375Z,100508.41
2022-10-08T19:52:34.865Z,100511.75
2022-10-08T19:57:37.632Z,100516.72
2022-10-08T20:02:40.240Z,100513.75
2022-10-08T20:08:00.865Z,100509.38
2022-10-08T20:13:02.844Z,100514.03
2022-10-08T20:18:11.127Z,100513.19
2022-10-08T20:23:14.128Z,100524.03
2022-10-08T20:28:16.260Z,100533.38
2022-10-08T20:33:20.099Z,100542.03
2022-10-08T20:38:22.190Z,100535.56
2022-10-08T20:43:28.496Z,100525.41
2022-10-08T20:48:32.952Z,100523.94
2022-10-08T20:53:35.839Z,100525.25
2022-10-08T20:58:38.669Z,100527.78
2022-10-08T21:03:44.306Z,100534.44
2022-10-08T21:08:49.123Z,100528.78
2022-10-08T21:13:52.112Z,100529.31
2022-10-08T21:18:57.606Z,100520.47
2022-10-08T21:24:00.829Z,100530.09
2022-10-08T21:29:08.688Z,100527.28
2022-10-08T21:34:12.717Z,100526.78
2022-10-08T21:39:17.299Z,100529.13
2022-10-08T21:44:20.067Z,100525.13
2022-10-08T21:49:24.134Z,100512.81
2022-10-08T21:54:26.929Z,100519.81
2022-10-08T21:59:29.779Z,100525.44
2022-10-08T22:04:32.550Z,100533.63
2022-10-08T22:09:35.413Z,100534.09
2022-10-08T22:14:38.426Z,100530.94
2022-10-08T22:19:41.210Z,100539.75
2022-10-08T22:24:44.487Z,100537.25
2022-10-08T22:29:47.283Z,100541.25
2022-10-08T22:34:50.660Z,100544.41
2022-10-08T22:39:53.459Z,100555.69
2022-10-08T22:45:11.964Z,100552.88
2022-10-08T22:50:17.754Z,100551.69
2022-10-08T22:55:31.366Z,100560.97
2022-10-08T23:00:34.523Z,100561.97
2022-10-08T23:05:37.276Z,100566.94
2022-10-08T23:10:40.056Z,100564.91
2022-10-08T23:15:42.831Z,100572.00
2022-10-08T23:20:46.039Z,100569.63
2022-10-08T23:25:59.475Z,100572.56
2022-10-08T23:31:10.687Z,100591.47
2022-10-08T23:36:20.127Z,100583.94
2022-10-08T23:41:23.341Z,100592.38
2022-10-08T23:46:28.404Z,100599.53
2022-10-08T23:51:32.216Z,100591.84
2022-10-08T23:56:35.317Z,100586.69
